createdAt,value
2022-08-11T00:01:27.310Z,100335.87
2022-08-11T00:04:03.155Z,100343.72
2022-08-11T00:06:40.006Z,100334.31
2022-08-11T00:09:11.082Z,100337.22
2022-08-11T00:11:46.044Z,100344.50
2022-08-11T00:14:37.437Z,100337.47
2022-08-11T00:17:09.538Z,100332.13
2022-08-11T00:20:11.732Z,100333.69
2022-08-11T00:22:45.133Z,100334.84
2022-08-11T00:25:16.310Z,100328.69
2022-08-11T00:27:44.126Z,100334.53
2022-08-11T00:30:13.302Z,100331.44
2022-08-11T00:32:55.292Z,100327.94
2022-08-11T00:35:55.337Z,100326.06
2022-08-11T00:38:17.274Z,100332.63
2022-08-11T00:40:53.612Z,100321.53
2022-08-11T00:43:43.002Z,100329.50
2022-08-11T00:46:22.702Z,100320.16
2022-08-11T00:49:07.093Z,100318.78
2022-08-11T00:52:05.688Z,100322.16
2022-08-11T00:54:39.530Z,100317.38
2022-08-11T00:57:37.610Z,100317.44
2022-08-11T01:00:16.300Z,100319.44
2022-08-11T01:03:07.794Z,100326.25
2022-08-11T01:05:46.603Z,100321.28
2022-08-11T01:08:19.802Z,100315.56
2022-08-11T01:11:02.963Z,100321.16
2022-08-11T01:13:46.794Z,100318.69
2022-08-11T01:16:39.440Z,100325.25
2022-08-11T01:19:29.750Z,100306.62
2022-08-11T01:22:15.725Z,100318.81
2022-08-11T01:25:16.828Z,100321.41
2022-08-11T01:28:03.166Z,100317.50
2022-08-11T01:30:54.815Z,100312.03
2022-08-11T01:33:59.675Z,100318.78
2022-08-11T01:37:05.382Z,100321.75
2022-08-11T01:39:51.511Z,100318.28
2022-08-11T01:43:11.994Z,100302.63
2022-08-11T01:45:51.572Z,100310.25
2022-08-11T01:48:38.043Z,100311.81
2022-08-11T01:51:25.053Z,100307.81
2022-08-11T01:54:09.990Z,100316.00
2022-08-11T01:56:50.001Z,100310.84
2022-08-11T01:59:19.564Z,100314.06
2022-08-11T02:02:05.629Z,100311.09
2022-08-11T02:04:44.209Z,100299.47
2022-08-11T02:07:26.250Z,100297.69
2022-08-11T02:10:22.965Z,100297.44
2022-08-11T02:13:00.492Z,100303.34
2022-08-11T02:15:36.455Z,100300.41
2022-08-11T02:18:10.938Z,100294.72
2022-08-11T02:21:03.348Z,100293.88
2022-08-11T02:24:06.113Z,100294.09
2022-08-11T02:26:46.351Z,100300.19
2022-08-11T02:29:19.763Z,100294.56
2022-08-11T02:32:25.047Z,100298.47
2022-08-11T02:35:12.366Z,100295.16
2022-08-11T02:38:12.810Z,100292.28
2022-08-11T02:41:01.438Z,100289.47
2022-08-11T02:43:40.595Z,100288.66
2022-08-11T02:46:21.388Z,100288.97
2022-08-11T02:50:02.734Z,100284.63
2022-08-11T02:52:52.157Z,100278.22
2022-08-11T02:55:55.681Z,100284.59
2022-08-11T02:58:28.115Z,100280.44
2022-08-11T03:01:23.895Z,100281.22
2022-08-11T03:03:57.946Z,100287.78
2022-08-11T03:06:52.096Z,100283.69
2022-08-11T03:09:26.288Z,100290.81
2022-08-11T03:12:21.359Z,100283.53
2022-08-11T03:15:30.844Z,100288.28
2022-08-11T03:18:16.416Z,100292.00
2022-08-11T03:20:56.657Z,100302.03
2022-08-11T03:23:31.422Z,100303.41
2022-08-11T03:26:07.703Z,100297.00
2022-08-11T03:28:53.425Z,100293.88
2022-08-11T03:31:28.611Z,100293.34
2022-08-11T03:34:09.091Z,100300.31
2022-08-11T03:37:14.970Z,100301.13
2022-08-11T03:39:56.135Z,100293.63
2022-08-11T03:42:33.399Z,100296.16
2022-08-11T03:45:40.988Z,100291.56
2022-08-11T03:48:25.748Z,100291.78
2022-08-11T03:50:58.427Z,100288.84
2022-08-11T03:53:58.340Z,100293.06
2022-08-11T03:56:48.017Z,100299.66
2022-08-11T03:59:46.145Z,100291.50
2022-08-11T04:02:39.302Z,100299.31
2022-08-11T04:05:38.983Z,100299.75
2022-08-11T04:08:33.895Z,100298.16
2022-08-11T04:11:29.945Z,100292.56
2022-08-11T04:14:49.989Z,100301.75
2022-08-11T04:17:38.965Z,100308.37
2022-08-11T04:20:31.397Z,100302.91
2022-08-11T04:24:33.042Z,100305.97
2022-08-11T04:26:34.368Z,100305.22
2022-08-11T04:29:15.625Z,100304.91
2022-08-11T04:31:52.804Z,100307.06
2022-08-11T04:34:36.492Z,100311.81
2022-08-11T04:37:31.832Z,100311.03
2022-08-11T04:40:25.072Z,100312.53
2022-08-11T04:43:23.428Z,100312.09
2022-08-11T04:46:09.120Z,100315.13
2022-08-11T04:49:10.246Z,100315.25
2022-08-11T04:52:35.994Z,100312.38
2022-08-11T04:55:53.502Z,100316.72
2022-08-11T04:59:08.601Z,100310.28
2022-08-11T05:01:41.880Z,100311.97
2022-08-11T05:04:58.219Z,100309.25
2022-08-11T05:08:23.439Z,100311.81
2022-08-11T05:11:16.310Z,100311.53
2022-08-11T05:14:07.196Z,100316.84
2022-08-11T05:17:10.688Z,100324.06
2022-08-11T05:19:56.874Z,100320.31
2022-08-11T05:22:47.337Z,100320.38
2022-08-11T05:26:44.551Z,100325.22
2022-08-11T05:28:58.270Z,100326.19
2022-08-11T05:31:51.387Z,100328.53
2022-08-11T05:34:44.332Z,100327.78
2022-08-11T05:37:34.095Z,100328.75
2022-08-11T05:40:27.436Z,100328.31
2022-08-11T05:43:31.047Z,100324.94
2022-08-11T05:46:22.444Z,100328.81
2022-08-11T05:49:09.344Z,100339.03
2022-08-11T05:52:05.034Z,100333.69
2022-08-11T05:54:54.349Z,100332.31
2022-08-11T05:57:39.618Z,100323.19
2022-08-11T06:00:14.456Z,100327.75
2022-08-11T06:02:50.316Z,100333.25
2022-08-11T06:05:19.471Z,100330.75
2022-08-11T06:07:50.025Z,100334.16
2022-08-11T06:10:32.376Z,100332.19
2022-08-11T06:13:03.299Z,100338.37
2022-08-11T06:15:34.633Z,100337.41
2022-08-11T06:18:03.449Z,100332.75
2022-08-11T06:20:36.882Z,100336.56
2022-08-11T06:23:06.934Z,100337.25
2022-08-11T06:25:35.805Z,100327.75
2022-08-11T06:28:06.361Z,100325.66
2022-08-11T06:30:39.598Z,100334.09
2022-08-11T06:33:31.627Z,100333.44
2022-08-11T06:36:14.601Z,100334.69
2022-08-11T06:39:02.572Z,100326.28
2022-08-11T06:41:49.951Z,100331.81
2022-08-11T06:44:24.450Z,100327.22
2022-08-11T06:46:53.108Z,100333.75
2022-08-11T06:49:41.794Z,100331.69
2022-08-11T06:52:34.497Z,100326.47
2022-08-11T06:55:08.638Z,100331.50
2022-08-11T06:57:58.484Z,100325.28
2022-08-11T07:00:28.620Z,100330.59
2022-08-11T07:03:03.956Z,100324.47
2022-08-11T07:05:46.893Z,100318.81
2022-08-11T07:09:03.621Z,100317.19
2022-08-11T07:12:27.224Z,100315.13
2022-08-11T07:15:15.438Z,100316.84
2022-08-11T07:18:10.443Z,100309.19
2022-08-11T07:21:02.421Z,100308.22
2022-08-11T07:23:50.763Z,100305.00
2022-08-11T07:26:38.755Z,100307.38
2022-08-11T07:29:07.349Z,100303.50
2022-08-11T07:31:37.623Z,100295.16
2022-08-11T07:34:28.665Z,100302.31
2022-08-11T07:36:58.030Z,100302.66
2022-08-11T07:39:33.348Z,100299.66
2022-08-11T07:42:06.508Z,100305.97
2022-08-11T07:44:54.504Z,100305.97
2022-08-11T07:47:41.340Z,100303.25
2022-08-11T07:50:28.314Z,100289.19
2022-08-11T07:52:57.908Z,100296.03
2022-08-11T07:55:49.016Z,100290.66
2022-08-11T07:58:37.765Z,100283.09
2022-08-11T08:01:38.311Z,100296.00
2022-08-11T08:04:26.056Z,100290.97
2022-08-11T08:07:12.491Z,100290.69
2022-08-11T08:09:59.287Z,100280.78
2022-08-11T08:12:45.761Z,100280.03
2022-08-11T08:15:33.800Z,100287.13
2022-08-11T08:18:09.506Z,100286.16
2022-08-11T08:20:51.222Z,100278.97
2022-08-11T08:23:33.763Z,100277.66
2022-08-11T08:26:04.666Z,100285.06
2022-08-11T08:28:32.930Z,100290.53
2022-08-11T08:31:00.592Z,100285.25
2022-08-11T08:33:30.820Z,100284.44
2022-08-11T08:36:16.892Z,100282.59
2022-08-11T08:38:49.643Z,100272.28
2022-08-11T08:41:32.594Z,100279.34
2022-08-11T08:44:27.628Z,100285.38
2022-08-11T08:46:54.999Z,100272.31
2022-08-11T08:49:27.727Z,100276.66
2022-08-11T08:52:20.124Z,100267.41
2022-08-11T08:54:44.894Z,100265.47
2022-08-11T08:57:13.262Z,100269.84
2022-08-11T08:59:48.466Z,100266.69
2022-08-11T09:02:33.452Z,100281.06
2022-08-11T09:05:05.875Z,100280.47
2022-08-11T09:07:39.844Z,100267.50
2022-08-11T09:10:10.090Z,100263.84
2022-08-11T09:12:39.811Z,100260.50
2022-08-11T09:15:10.267Z,100256.63
2022-08-11T09:17:45.314Z,100251.78
2022-08-11T09:20:18.101Z,100246.75
2022-08-11T09:26:18.911Z,100254.16
2022-08-11T09:28:47.556Z,100238.81
2022-08-11T09:31:15.000Z,100243.78
2022-08-11T09:33:43.761Z,100238.53
2022-08-11T09:36:31.765Z,100238.56
2022-08-11T09:39:19.322Z,100236.56
2022-08-11T09:42:01.041Z,100229.28
2022-08-11T09:44:50.275Z,100228.97
2022-08-11T09:47:29.743Z,100217.88
2022-08-11T09:50:00.796Z,100219.63
2022-08-11T09:52:29.362Z,100227.19
2022-08-11T09:54:56.916Z,100223.53
2022-08-11T09:57:44.139Z,100221.81
2022-08-11T10:00:14.158Z,100221.81
2022-08-11T10:02:45.254Z,100214.97
2022-08-11T10:05:34.388Z,100212.66
2022-08-11T10:08:02.973Z,100210.44
2022-08-11T10:10:34.906Z,100202.75
2022-08-11T10:13:05.636Z,100206.66
2022-08-11T10:16:00.026Z,100203.00
2022-08-11T10:18:53.964Z,100210.69
2022-08-11T10:21:28.202Z,100195.78
2022-08-11T10:24:17.515Z,100205.75
2022-08-11T10:26:53.594Z,100190.94
2022-08-11T10:29:45.457Z,100198.25
2022-08-11T10:32:49.345Z,100192.69
2022-08-11T10:35:32.087Z,100178.03
2022-08-11T10:38:06.435Z,100185.19
2022-08-11T10:40:35.854Z,100182.63
2022-08-11T10:43:05.415Z,100190.44
2022-08-11T10:45:56.512Z,100181.22
2022-08-11T10:48:25.996Z,100169.25
2022-08-11T10:51:12.648Z,100166.25
2022-08-11T10:54:04.708Z,100164.69
2022-08-11T10:56:54.670Z,100171.12
2022-08-11T10:59:23.902Z,100172.56
2022-08-11T11:01:52.901Z,100163.59
2022-08-11T11:04:29.299Z,100156.53
2022-08-11T11:07:08.096Z,100161.75
2022-08-11T11:09:43.959Z,100156.84
2022-08-11T11:12:38.099Z,100155.09
2022-08-11T11:15:25.066Z,100155.09
2022-08-11T11:18:06.847Z,100156.22
2022-08-11T11:21:07.361Z,100149.63
2022-08-11T11:24:03.007Z,100143.56
2022-08-11T11:26:55.822Z,100138.69
2022-08-11T11:29:26.272Z,100136.66
2022-08-11T11:32:08.947Z,100133.41
2022-08-11T11:34:53.713Z,100117.75
2022-08-11T11:37:25.419Z,100125.22
2022-08-11T11:39:54.692Z,100123.88
2022-08-11T11:42:22.546Z,100123.03
2022-08-11T11:44:52.191Z,100122.28
2022-08-11T11:47:23.417Z,100111.16
2022-08-11T11:49:50.828Z,100114.34
2022-08-11T11:52:19.832Z,100114.00
2022-08-11T11:54:50.824Z,100117.88
2022-08-11T11:57:40.628Z,100113.62
2022-08-11T12:00:33.676Z,100103.25
2022-08-11T12:03:05.061Z,100092.25
2022-08-11T12:05:34.648Z,100087.00
2022-08-11T12:08:13.034Z,100095.16
2022-08-11T12:10:50.744Z,100094.06
2022-08-11T12:13:37.616Z,100091.37
2022-08-11T12:16:34.851Z,100090.16
2022-08-11T12:18:59.504Z,100082.81
2022-08-11T12:21:28.639Z,100081.25
2022-08-11T12:24:16.548Z,100081.41
2022-08-11T12:27:15.185Z,100078.44
2022-08-11T12:29:41.178Z,100068.44
2022-08-11T12:32:12.071Z,100075.91
2022-08-11T12:34:39.802Z,100077.97
2022-08-11T12:37:13.031Z,100071.88
2022-08-11T12:40:16.078Z,100075.88
2022-08-11T12:43:21.212Z,100074.19
2022-08-11T12:45:58.390Z,100067.34
2022-08-11T12:48:58.562Z,100063.56
2022-08-11T12:52:11.528Z,100067.69
2022-08-11T12:54:42.106Z,100061.31
2022-08-11T12:57:37.422Z,100060.94
2022-08-11T13:00:25.671Z,100057.37
2022-08-11T13:03:12.732Z,100051.31
2022-08-11T13:05:44.641Z,100049.75
2022-08-11T13:08:16.867Z,100040.84
2022-08-11T13:11:03.908Z,100044.75
2022-08-11T13:13:55.085Z,100027.94
2022-08-11T13:16:20.711Z,100031.72
2022-08-11T13:18:50.147Z,100036.69
2022-08-11T13:21:20.692Z,100037.66
2022-08-11T13:24:00.537Z,100027.41
2022-08-11T13:26:41.643Z,100021.69
2022-08-11T13:29:21.220Z,100026.31
2022-08-11T13:31:49.328Z,100017.50
2022-08-11T13:34:17.906Z,100021.00
2022-08-11T13:36:45.817Z,100015.41
2022-08-11T13:39:13.573Z,100024.44
2022-08-11T13:41:44.004Z,100020.00
2022-08-11T13:44:15.632Z,100021.19
2022-08-11T13:46:46.560Z,100014.22
2022-08-11T13:49:17.565Z,100019.81
2022-08-11T13:51:45.258Z,100011.53
2022-08-11T13:54:20.371Z,100003.75
2022-08-11T13:56:52.297Z,100006.53
2022-08-11T13:59:29.558Z,100002.75
2022-08-11T14:02:22.305Z,100009.34
2022-08-11T14:04:58.005Z,100013.19
2022-08-11T14:07:28.812Z,100004.91
2022-08-11T14:09:59.293Z,100012.88
2022-08-11T14:12:48.223Z,100012.97
2022-08-11T14:15:29.445Z,100011.00
2022-08-11T14:18:05.634Z,100010.72
2022-08-11T14:20:54.459Z,100013.63
2022-08-11T14:23:28.070Z,100005.81
2022-08-11T14:26:15.282Z,100006.59
2022-08-11T14:28:45.140Z,100007.81
2022-08-11T14:31:16.169Z,100004.91
2022-08-11T14:34:00.237Z,100003.19
2022-08-11T14:36:32.685Z,100007.31
2022-08-11T14:39:02.227Z,100001.16
2022-08-11T14:42:10.364Z,99999.94
2022-08-11T14:44:56.515Z,100004.62
2022-08-11T14:47:25.636Z,99997.69
2022-08-11T14:50:08.254Z,100003.41
2022-08-11T14:52:39.562Z,100000.97
2022-08-11T14:55:26.608Z,100000.66
2022-08-11T14:57:57.074Z,99998.53
2022-08-11T15:00:25.140Z,99999.56
2022-08-11T15:03:13.270Z,99992.81
2022-08-11T15:05:57.449Z,99991.88
2022-08-11T15:08:53.915Z,99992.53
2022-08-11T15:11:41.845Z,99995.78
2022-08-11T15:14:10.783Z,99992.75
2022-08-11T15:17:03.274Z,99991.13
2022-08-11T15:19:36.662Z,99987.88
2022-08-11T15:22:29.173Z,99991.88
2022-08-11T15:24:58.995Z,99997.47
2022-08-11T15:27:46.831Z,99988.69
2022-08-11T15:30:34.261Z,99989.84
2022-08-11T15:33:23.698Z,99984.94
2022-08-11T15:36:11.568Z,99987.06
2022-08-11T15:38:43.118Z,99980.81
2022-08-11T15:41:32.385Z,99980.41
2022-08-11T15:44:19.556Z,99980.06
2022-08-11T15:46:52.526Z,99982.75
2022-08-11T15:50:11.056Z,99981.38
2022-08-11T15:52:30.947Z,99970.22
2022-08-11T15:55:02.164Z,99975.41
2022-08-11T15:57:49.386Z,99973.28
2022-08-11T16:00:35.730Z,99970.56
2022-08-11T16:03:22.159Z,99969.06
2022-08-11T16:05:52.874Z,99981.84
2022-08-11T16:08:33.222Z,99978.59
2022-08-11T16:11:01.911Z,99974.53
2022-08-11T16:13:34.786Z,99978.09
2022-08-11T16:16:15.142Z,99965.28
2022-08-11T16:18:52.083Z,99967.59
2022-08-11T16:21:26.159Z,99961.28
2022-08-11T16:24:07.874Z,99960.97
2022-08-11T16:27:08.760Z,99967.00
2022-08-11T16:29:26.426Z,99966.31
2022-08-11T16:32:14.431Z,99963.63
2022-08-11T16:35:02.887Z,99963.94
2022-08-11T16:37:52.116Z,99960.78
2022-08-11T16:40:22.515Z,99963.00
2022-08-11T16:43:11.275Z,99967.59
2022-08-11T16:45:59.957Z,99963.44
2022-08-11T16:48:37.423Z,99963.00
2022-08-11T16:51:07.429Z,99962.47
2022-08-11T16:54:00.218Z,99962.94
2022-08-11T16:56:28.547Z,99965.03
2022-08-11T16:59:17.107Z,99965.25
2022-08-11T17:01:45.300Z,99973.00
2022-08-11T17:04:52.533Z,99969.03
2022-08-11T17:07:41.512Z,99959.84
2022-08-11T17:10:50.807Z,99968.28
2022-08-11T17:13:26.202Z,99970.97
2022-08-11T17:16:13.122Z,99965.41
2022-08-11T17:18:49.304Z,99963.25
2022-08-11T17:21:21.035Z,99964.88
2022-08-11T17:23:52.812Z,99965.00
2022-08-11T17:26:23.462Z,99963.69
2022-08-11T17:28:57.960Z,99970.34
2022-08-11T17:31:46.082Z,99968.00
2022-08-11T17:34:34.378Z,99976.75
2022-08-11T17:37:03.216Z,99991.78
2022-08-11T17:39:31.824Z,99998.09
2022-08-11T17:42:19.475Z,99988.25
2022-08-11T17:45:06.854Z,100000.03
2022-08-11T17:48:07.074Z,100004.44
2022-08-11T17:50:36.576Z,100013.56
2022-08-11T17:53:22.636Z,100013.09
2022-08-11T17:56:09.294Z,100016.13
2022-08-11T17:58:57.331Z,100012.69
2022-08-11T18:01:25.560Z,100017.09
2022-08-11T18:03:58.377Z,100022.59
2022-08-11T18:06:34.877Z,100032.44
2022-08-11T18:09:27.262Z,100026.53
2022-08-11T18:12:14.372Z,100033.28
2022-08-11T18:15:04.419Z,100040.81
2022-08-11T18:17:50.354Z,100034.81
2022-08-11T18:20:38.176Z,100043.09
2022-08-11T18:23:45.819Z,100052.03
2022-08-11T18:26:39.044Z,100049.47
2022-08-11T18:29:26.380Z,100052.03
2022-08-11T18:32:21.129Z,100046.78
2022-08-11T18:35:09.318Z,100053.66
2022-08-11T18:38:04.336Z,100058.03
2022-08-11T18:40:50.891Z,100063.34
2022-08-11T18:43:43.337Z,100060.69
2022-08-11T18:46:32.060Z,100050.72
2022-08-11T18:49:22.519Z,100060.59
2022-08-11T18:52:13.384Z,100050.03
2022-08-11T18:55:00.950Z,100055.94
2022-08-11T18:57:53.706Z,100054.31
2022-08-11T19:00:46.538Z,100059.28
2022-08-11T19:03:43.437Z,100072.38
2022-08-11T19:06:40.725Z,100065.41
2022-08-11T19:09:36.681Z,100075.06
2022-08-11T19:12:26.957Z,100075.72
2022-08-11T19:15:16.298Z,100067.37
2022-08-11T19:18:04.823Z,100068.56
2022-08-11T19:20:57.122Z,100063.06
2022-08-11T19:23:54.573Z,100066.31
2022-08-11T19:26:45.016Z,100062.28
2022-08-11T19:30:07.619Z,100055.91
2022-08-11T19:32:53.419Z,100056.56
2022-08-11T19:35:45.622Z,100055.91
2022-08-11T19:38:32.730Z,100052.75
2022-08-11T19:41:56.165Z,100052.97
2022-08-11T19:44:26.393Z,100055.91
2022-08-11T19:47:13.861Z,100055.78
2022-08-11T19:50:04.469Z,100054.31
2022-08-11T19:52:56.149Z,100054.56
2022-08-11T19:55:45.392Z,100053.06
2022-08-11T19:58:35.596Z,100059.28
2022-08-11T20:01:24.257Z,100053.72
2022-08-11T20:04:11.124Z,100057.72
2022-08-11T20:06:59.375Z,100059.12
2022-08-11T20:10:04.668Z,100048.22
2022-08-11T20:12:54.745Z,100050.69
2022-08-11T20:15:42.800Z,100046.50
2022-08-11T20:18:32.733Z,100049.00
2022-08-11T20:21:20.515Z,100050.03
2022-08-11T20:24:16.653Z,100049.66
2022-08-11T20:27:04.224Z,100051.94
2022-08-11T20:29:52.485Z,100050.97
2022-08-11T20:32:39.712Z,100050.63
2022-08-11T20:35:28.927Z,100053.63
2022-08-11T20:38:15.660Z,100060.16
2022-08-11T20:41:02.443Z,100054.94
2022-08-11T20:44:05.499Z,100055.19
2022-08-11T20:47:00.384Z,100055.09
2022-08-11T20:49:53.874Z,100063.31
2022-08-11T20:52:48.556Z,100071.34
2022-08-11T20:55:51.903Z,100069.22
2022-08-11T21:01:47.091Z,100069.44
2022-08-11T21:04:54.071Z,100074.00
2022-08-11T21:07:57.330Z,100066.44
2022-08-11T21:10:52.002Z,100073.19
2022-08-11T21:13:42.093Z,100075.34
2022-08-11T21:16:29.368Z,100070.81
2022-08-11T21:20:01.259Z,100070.91
2022-08-11T21:22:42.391Z,100079.31
2022-08-11T21:25:46.556Z,100078.09
2022-08-11T21:28:33.690Z,100076.47
2022-08-11T21:31:23.338Z,100074.31
2022-08-11T21:34:09.801Z,100078.34
2022-08-11T21:36:57.267Z,100083.47
2022-08-11T21:39:43.942Z,100085.19
2022-08-11T21:42:30.885Z,100085.03
2022-08-11T21:45:16.779Z,100090.88
2022-08-11T21:48:03.160Z,100092.41
2022-08-11T21:50:48.998Z,100088.25
2022-08-11T21:53:36.173Z,100090.50
2022-08-11T21:56:22.552Z,100091.28
2022-08-11T21:59:15.779Z,100090.66
2022-08-11T22:02:03.441Z,100096.34
2022-08-11T22:04:49.584Z,100095.13
2022-08-11T22:07:39.534Z,100092.69
2022-08-11T22:10:42.011Z,100090.81
2022-08-11T22:13:31.210Z,100091.31
2022-08-11T22:16:20.187Z,100092.69
2022-08-11T22:19:08.705Z,100090.28
2022-08-11T22:22:01.256Z,100087.87
2022-08-11T22:24:51.377Z,100090.19
2022-08-11T22:27:38.661Z,100084.09
2022-08-11T22:30:26.280Z,100093.91
2022-08-11T22:33:15.062Z,100084.94
2022-08-11T22:36:03.256Z,100085.84
2022-08-11T22:38:51.547Z,100082.34
2022-08-11T22:41:37.659Z,100083.19
2022-08-11T22:44:23.999Z,100078.75
2022-08-11T22:47:10.571Z,100071.31
2022-08-11T22:49:58.542Z,100065.84
2022-08-11T22:52:47.110Z,100066.09
2022-08-11T22:55:34.050Z,100057.81
2022-08-11T22:58:24.811Z,100065.38
2022-08-11T23:01:11.484Z,100058.31
2022-08-11T23:03:57.963Z,100056.00
2022-08-11T23:06:44.655Z,100058.50
2022-08-11T23:09:30.774Z,100054.31
2022-08-11T23:12:17.218Z,100061.06
2022-08-11T23:15:04.176Z,100058.22
2022-08-11T23:17:50.744Z,100062.22
2022-08-11T23:20:45.342Z,100055.19
2022-08-11T23:23:37.476Z,100063.34
2022-08-11T23:26:23.825Z,100055.28
2022-08-11T23:29:11.574Z,100049.66
2022-08-11T23:31:57.650Z,100053.19
2022-08-11T23:35:04.614Z,100052.22
2022-08-11T23:37:51.511Z,100037.63
2022-08-11T23:40:37.914Z,100050.03
2022-08-11T23:43:24.443Z,100039.72
2022-08-11T23:46:10.670Z,100032.06
2022-08-11T23:48:57.658Z,100033.31
2022-08-11T23:51:44.530Z,100040.50
2022-08-11T23:54:35.113Z,100036.13
2022-08-11T23:57:23.998Z,100041.34
